Terminal Aerodrome Forecast
Issued by NWS

Home | Current Version | Previous Version | Text Only | Print | Product List | Glossary Off
Versions: 1 2 3 4 5 6 7 8 9 10 11 12

000
FTUS43 KMPX 170520
TAFRWF
TAF
KRWF 170520Z 1706/1806 21008KT P6SM SCT200
     FM172000 24008KT P6SM SCT200
     FM180000 28008KT P6SM SCT150=

USA.gov is the U.S. government's official web portal to all federal, state and local government web resources and services.